Archival Weather

Centro Met. Antartico Pdte. E

Centro Met. Antartico Pdte. E, Antarctica (SCRM)

Report from: Thursday, September 21, 2023 4:00 PM UTC
Current time: Friday, February 23, 2024 7:38 PM UTC

Current weather – Weather history – Daily summaries
Weather forecast

Present weatherLight snow showers
Temperature-7.0°C (19.4°F)
Wind chill-17.3°C (0.8°F)
Dew point-11.0°C (12.2°F)
Winds 25 kts (12.9 m/s, 28.8 mph) West-Southwest (240°)
Visibility5 mi. (8 km)
Clouds Scattered clouds 2,000 ft. (610 m)
Ceiling: Broken clouds 2,500 ft. (762 m)
Altimeter29.18 in.Hg (988 mB)
Relative humidity73 %
Density altitude-1,811 ft. (-552 m)
Remarks No significant changes expected in the next two hours
Flight conditions Marginal Visual Meteorological Conditions
Raw dataSCRM 211600Z 24025KT 8000 -SHSN SCT020 BKN025 M07/M11 Q0988 NOSIG
An error has occurred. This application may no longer respond until reloaded. Reload 🗙